createdAt,value
2022-09-18T00:00:15.900Z,51.212101
2022-09-18T00:01:15.907Z,51.212025
2022-09-18T00:02:15.962Z,51.212158
2022-09-18T00:03:15.970Z,51.212200
2022-09-18T00:04:15.871Z,51.212124
2022-09-18T00:05:15.873Z,51.212254
2022-09-18T00:06:15.876Z,51.212158
2022-09-18T00:07:15.860Z,51.212082
2022-09-18T00:08:15.864Z,51.212070
2022-09-18T00:09:15.928Z,51.212135
2022-09-18T00:10:15.856Z,51.212105
2022-09-18T00:11:15.875Z,51.212101
2022-09-18T00:12:15.835Z,51.212090
2022-09-18T00:13:15.893Z,51.212067
2022-09-18T00:14:15.848Z,51.212101
2022-09-18T00:15:15.800Z,51.212185
2022-09-18T00:16:15.862Z,51.212250
2022-09-18T00:20:14.623Z,51.212284
2022-09-18T00:21:14.622Z,51.212254
2022-09-18T00:22:14.628Z,51.211964
2022-09-18T00:23:14.619Z,51.212109
2022-09-18T00:24:14.609Z,51.212158
2022-09-18T00:25:14.701Z,51.212166
2022-09-18T00:26:14.586Z,51.212166
2022-09-18T00:27:14.586Z,51.212132
2022-09-18T00:28:14.586Z,51.212185
2022-09-18T00:29:14.614Z,51.212261
2022-09-18T00:30:14.594Z,51.212223
2022-09-18T00:31:21.247Z,51.212139
2022-09-18T00:32:46.986Z,51.212151
2022-09-18T00:33:14.551Z,51.212086
2022-09-18T00:34:14.551Z,51.212051
2022-09-18T00:35:14.614Z,51.212116
2022-09-18T00:36:14.517Z,51.212135
2022-09-18T00:37:14.563Z,51.212112
2022-09-18T00:38:14.518Z,51.212124
2022-09-18T00:39:14.544Z,51.212044
2022-09-18T00:40:14.565Z,51.212116
2022-09-18T00:41:14.605Z,51.212078
2022-09-18T00:42:14.529Z,51.212147
2022-09-18T00:43:14.481Z,51.212082
2022-09-18T00:44:14.478Z,51.212132
2022-09-18T00:45:14.504Z,51.212044
2022-09-18T00:46:15.534Z,51.211975
2022-09-18T00:47:14.467Z,51.212151
2022-09-18T00:48:14.504Z,51.212147
2022-09-18T00:49:14.457Z,51.212086
2022-09-18T00:50:14.444Z,51.212132
2022-09-18T00:51:14.512Z,51.211971
2022-09-18T00:52:14.433Z,51.212059
2022-09-18T00:53:14.450Z,51.212120
2022-09-18T00:54:14.457Z,51.212063
2022-09-18T00:55:14.420Z,51.212082
2022-09-18T00:56:14.433Z,51.212177
2022-09-18T00:57:14.581Z,51.212151
2022-09-18T00:58:14.417Z,51.212177
2022-09-18T00:59:14.408Z,51.212196
2022-09-18T01:00:14.507Z,51.212254
2022-09-18T01:01:14.441Z,51.212212
2022-09-18T01:02:14.417Z,51.212246
2022-09-18T01:03:14.449Z,51.212246
2022-09-18T01:04:14.361Z,51.212036
2022-09-18T01:05:14.364Z,51.212154
2022-09-18T01:06:14.347Z,51.212120
2022-09-18T01:07:14.338Z,51.212223
2022-09-18T01:08:14.355Z,51.212242
2022-09-18T01:09:25.219Z,51.212234
2022-09-18T01:10:16.310Z,51.212139
2022-09-18T01:11:14.314Z,51.212147
2022-09-18T01:12:14.318Z,51.212257
2022-09-18T01:13:14.385Z,51.212105
2022-09-18T01:14:14.291Z,51.212078
2022-09-18T01:15:15.291Z,51.211990
2022-09-18T01:16:14.361Z,51.212105
2022-09-18T01:17:14.278Z,51.212082
2022-09-18T01:18:14.279Z,51.212063
2022-09-18T01:19:14.278Z,51.212055
2022-09-18T01:20:14.254Z,51.211803
2022-09-18T01:21:14.257Z,51.211910
2022-09-18T01:22:14.252Z,51.211964
2022-09-18T01:23:14.245Z,51.212059
2022-09-18T01:24:14.238Z,51.211746
2022-09-18T01:25:14.233Z,51.211945
2022-09-18T01:26:14.224Z,51.211967
2022-09-18T01:27:14.222Z,51.212021
2022-09-18T01:28:14.218Z,51.211853
2022-09-18T01:29:14.300Z,51.211826
2022-09-18T01:30:14.214Z,51.211964
2022-09-18T01:31:14.201Z,51.212078
2022-09-18T01:32:14.174Z,51.212059
2022-09-18T01:33:14.170Z,51.212105
2022-09-18T01:34:14.180Z,51.212128
2022-09-18T01:35:36.822Z,51.212181
2022-09-18T01:36:16.139Z,51.212276
2022-09-18T01:37:14.142Z,51.211964
2022-09-18T01:38:14.146Z,51.211895
2022-09-18T01:39:14.125Z,51.212017
2022-09-18T01:40:14.150Z,51.211952
2022-09-18T01:41:14.130Z,51.212139
2022-09-18T01:42:14.110Z,51.211777
2022-09-18T01:43:14.114Z,51.211937
2022-09-18T01:44:14.125Z,51.211971
2022-09-18T01:45:14.190Z,51.212029
2022-09-18T01:46:14.126Z,51.211933
2022-09-18T01:47:14.087Z,51.212074
2022-09-18T01:48:14.077Z,51.211849
2022-09-18T01:49:14.104Z,51.212086
2022-09-18T01:50:14.265Z,51.211926
2022-09-18T01:51:14.060Z,51.212128
2022-09-18T01:52:14.084Z,51.212204
2022-09-18T01:53:14.059Z,51.211933
2022-09-18T01:54:14.059Z,51.211998
2022-09-18T01:55:14.039Z,51.212181
2022-09-18T01:56:14.047Z,51.211964
2022-09-18T01:57:14.061Z,51.211975
2022-09-18T01:58:14.260Z,51.211899
2022-09-18T01:59:14.996Z,51.212109
2022-09-18T02:00:14.020Z,51.212055
2022-09-18T02:01:14.128Z,51.211792
2022-09-18T02:02:14.228Z,51.212002
2022-09-18T02:03:13.960Z,51.211895
2022-09-18T02:04:13.948Z,51.211693
2022-09-18T02:05:13.981Z,51.211571
2022-09-18T02:06:13.944Z,51.212128
2022-09-18T02:07:13.949Z,51.211838
2022-09-18T02:08:13.954Z,51.212006
2022-09-18T02:09:13.929Z,51.211636
2022-09-18T02:10:13.912Z,51.211720
2022-09-18T02:11:13.943Z,51.211967
2022-09-18T02:12:13.903Z,51.211887
2022-09-18T02:13:13.896Z,51.211720
2022-09-18T02:14:13.940Z,51.212193
2022-09-18T02:15:13.880Z,51.211777
2022-09-18T02:16:13.928Z,51.211987
2022-09-18T02:17:13.974Z,51.211586
2022-09-18T02:18:13.888Z,51.211857
2022-09-18T02:19:13.844Z,51.211864
2022-09-18T02:20:13.972Z,51.212009
2022-09-18T02:21:13.841Z,51.211971
2022-09-18T02:22:13.835Z,51.212116
2022-09-18T02:23:14.079Z,51.212036
2022-09-18T02:24:13.812Z,51.211945
2022-09-18T02:25:13.824Z,51.211872
2022-09-18T02:26:13.849Z,51.211868
2022-09-18T02:27:13.805Z,51.212013
2022-09-18T02:28:13.811Z,51.212013
2022-09-18T02:29:13.868Z,51.212067
2022-09-18T02:30:13.784Z,51.212093
2022-09-18T02:31:13.797Z,51.212051
2022-09-18T02:32:13.874Z,51.212082
2022-09-18T02:33:13.868Z,51.212086
2022-09-18T02:34:13.742Z,51.211922
2022-09-18T02:35:13.817Z,51.212101
2022-09-18T02:36:13.740Z,51.211906
2022-09-18T02:37:13.725Z,51.211876
2022-09-18T02:38:13.813Z,51.211956
2022-09-18T02:39:13.724Z,51.212181
2022-09-18T02:40:13.764Z,51.212124
2022-09-18T02:41:13.922Z,51.212101
2022-09-18T02:42:13.700Z,51.212036
2022-09-18T02:43:13.776Z,51.212032
2022-09-18T02:44:13.667Z,51.212032
2022-09-18T02:45:13.731Z,51.211975
2022-09-18T02:46:13.717Z,51.212029
2022-09-18T02:47:13.659Z,51.212025
2022-09-18T02:48:13.964Z,51.212021
2022-09-18T02:49:13.744Z,51.212177
2022-09-18T02:50:13.650Z,51.212135
2022-09-18T02:51:13.680Z,51.211998
2022-09-18T02:52:13.633Z,51.211990
2022-09-18T02:53:13.744Z,51.212059
2022-09-18T02:54:13.689Z,51.212009
2022-09-18T02:55:13.603Z,51.212029
2022-09-18T02:56:13.610Z,51.212090
2022-09-18T02:57:13.667Z,51.212097
2022-09-18T02:58:13.671Z,51.212090
2022-09-18T02:59:13.575Z,51.212032
2022-09-18T03:00:13.636Z,51.212090
2022-09-18T03:01:13.623Z,51.211994
2022-09-18T03:02:13.708Z,51.212048
2022-09-18T03:03:13.632Z,51.212101
2022-09-18T03:04:13.575Z,51.212112
2022-09-18T03:05:13.659Z,51.212143
2022-09-18T03:06:13.551Z,51.212219
2022-09-18T03:07:13.644Z,51.212254
2022-09-18T03:08:13.539Z,51.212051
2022-09-18T03:09:13.623Z,51.212086
2022-09-18T03:10:13.514Z,51.211960
2022-09-18T03:11:13.503Z,51.211967
2022-09-18T03:12:13.610Z,51.212009
2022-09-18T03:13:13.501Z,51.212170
2022-09-18T03:14:13.506Z,51.212112
2022-09-18T03:15:13.639Z,51.212048
2022-09-18T03:16:13.534Z,51.212105
2022-09-18T03:17:13.467Z,51.212189
2022-09-18T03:18:13.647Z,51.211990
2022-09-18T03:19:13.476Z,51.211990
2022-09-18T03:20:13.443Z,51.211975
2022-09-18T03:21:13.571Z,51.211918
2022-09-18T03:22:13.435Z,51.211979
2022-09-18T03:23:13.434Z,51.212009
2022-09-18T03:24:13.519Z,51.211937
2022-09-18T03:25:13.421Z,51.212040
2022-09-18T03:26:13.406Z,51.211987
2022-09-18T03:27:13.463Z,51.211945
2022-09-18T03:28:13.398Z,51.212151
2022-09-18T03:29:13.410Z,51.212097
2022-09-18T03:30:13.396Z,51.211834
2022-09-18T03:31:13.439Z,51.212078
2022-09-18T03:32:13.371Z,51.212029
2022-09-18T03:33:13.372Z,51.212109
2022-09-18T03:34:13.378Z,51.212105
2022-09-18T03:35:13.364Z,51.212181
2022-09-18T03:36:13.361Z,51.212151
2022-09-18T03:37:13.445Z,51.211815
2022-09-18T03:38:13.345Z,51.211929
2022-09-18T03:39:16.066Z,51.212009
2022-09-18T03:40:13.398Z,51.212151
2022-09-18T03:41:13.315Z,51.212143
2022-09-18T03:42:13.401Z,51.212139
2022-09-18T03:43:13.321Z,51.211922
2022-09-18T03:44:13.298Z,51.212055
2022-09-18T03:45:13.322Z,51.212143
2022-09-18T03:46:13.346Z,51.211960
2022-09-18T03:47:13.288Z,51.211937
2022-09-18T03:48:13.307Z,51.212009
2022-09-18T03:49:13.262Z,51.212135
2022-09-18T03:50:13.263Z,51.212170
2022-09-18T03:51:13.272Z,51.212082
2022-09-18T03:52:13.251Z,51.212139
2022-09-18T03:53:13.331Z,51.212193
2022-09-18T03:54:13.265Z,51.212231
2022-09-18T03:55:13.225Z,51.212173
2022-09-18T03:56:13.381Z,51.212044
2022-09-18T03:57:13.249Z,51.212166
2022-09-18T03:58:13.212Z,51.212185
2022-09-18T03:59:13.209Z,51.212208
2022-09-18T04:00:13.225Z,51.212242
2022-09-18T04:01:13.195Z,51.212307
2022-09-18T04:02:13.258Z,51.212288
2022-09-18T04:03:13.281Z,51.212257
2022-09-18T04:04:13.180Z,51.212215
2022-09-18T04:05:13.169Z,51.212250
2022-09-18T04:06:13.209Z,51.212181
2022-09-18T04:07:13.178Z,51.212196
2022-09-18T04:08:13.149Z,51.212280
2022-09-18T04:09:13.237Z,51.212166
2022-09-18T04:10:13.129Z,51.211926
2022-09-18T04:11:13.127Z,51.212139
2022-09-18T04:12:13.158Z,51.212173
2022-09-18T04:13:13.121Z,51.212189
2022-09-18T04:14:13.117Z,51.212162
2022-09-18T04:15:13.205Z,51.212223
2022-09-18T04:16:46.558Z,51.212173
2022-09-18T04:17:13.099Z,51.212196
2022-09-18T04:18:13.114Z,51.212166
2022-09-18T04:19:13.077Z,51.212185
2022-09-18T04:20:13.084Z,51.212189
2022-09-18T04:21:13.066Z,51.212181
2022-09-18T04:22:13.065Z,51.212166
2022-09-18T04:23:13.049Z,51.212177
2022-09-18T04:24:13.062Z,51.212173
2022-09-18T04:25:13.124Z,51.212040
2022-09-18T04:26:13.027Z,51.212112
2022-09-18T04:27:13.025Z,51.212181
2022-09-18T04:28:13.026Z,51.212135
2022-09-18T04:29:13.060Z,51.212109
2022-09-18T04:30:13.017Z,51.212048
2022-09-18T04:31:13.081Z,51.212101
2022-09-18T04:32:13.009Z,51.212196
2022-09-18T04:33:12.990Z,51.212097
2022-09-18T04:34:12.992Z,51.212025
2022-09-18T04:35:12.982Z,51.212048
2022-09-18T04:36:12.965Z,51.212090
2022-09-18T04:37:12.977Z,51.212116
2022-09-18T04:38:12.956Z,51.212162
2022-09-18T04:39:12.961Z,51.212166
2022-09-18T04:40:13.000Z,51.212166
2022-09-18T04:41:13.032Z,51.212132
2022-09-18T04:42:12.930Z,51.212162
2022-09-18T04:43:12.933Z,51.212185
2022-09-18T04:44:12.981Z,51.212231
2022-09-18T04:45:12.982Z,51.212219
2022-09-18T04:46:12.962Z,51.212303
2022-09-18T04:47:12.897Z,51.212196
2022-09-18T04:48:12.985Z,51.212166
2022-09-18T04:49:12.878Z,51.212158
2022-09-18T04:50:12.889Z,51.212070
2022-09-18T04:51:12.947Z,51.212170
2022-09-18T04:52:12.866Z,51.212086
2022-09-18T04:53:12.852Z,51.212151
2022-09-18T04:54:12.925Z,51.212105
2022-09-18T04:55:12.861Z,51.212086
2022-09-18T04:56:12.849Z,51.212132
2022-09-18T04:57:12.933Z,51.212135
2022-09-18T04:58:12.817Z,51.212151
2022-09-18T04:59:12.825Z,51.212147
2022-09-18T05:00:12.857Z,51.212158
2022-09-18T05:01:12.883Z,51.212048
2022-09-18T05:02:12.836Z,51.212093
2022-09-18T05:03:12.840Z,51.212162
2022-09-18T05:04:12.791Z,51.212181
2022-09-18T05:05:12.803Z,51.212177
2022-09-18T05:06:12.810Z,51.212208
2022-09-18T05:07:12.770Z,51.212132
2022-09-18T05:08:12.764Z,51.212086
2022-09-18T05:09:12.788Z,51.212101
2022-09-18T05:10:12.757Z,51.212170
2022-09-18T05:11:12.770Z,51.212196
2022-09-18T05:12:12.763Z,51.212227
2022-09-18T05:13:12.838Z,51.212166
2022-09-18T05:14:12.726Z,51.212154
2022-09-18T05:15:12.750Z,51.212166
2022-09-18T05:16:12.948Z,51.212177
2022-09-18T05:17:12.705Z,51.212132
2022-09-18T05:18:12.796Z,51.212162
2022-09-18T05:19:12.699Z,51.212212
2022-09-18T05:20:12.678Z,51.212132
2022-09-18T05:21:12.668Z,51.212120
2022-09-18T05:22:12.686Z,51.212132
2022-09-18T05:23:12.729Z,51.212181
2022-09-18T05:24:12.724Z,51.212337
2022-09-18T05:25:12.662Z,51.212212
2022-09-18T05:26:12.643Z,51.212109
2022-09-18T05:27:12.657Z,51.211975
2022-09-18T05:28:12.669Z,51.212120
2022-09-18T05:29:12.727Z,51.212219
2022-09-18T05:30:12.685Z,51.212151
2022-09-18T05:31:12.659Z,51.212162
2022-09-18T05:32:12.796Z,51.212154
2022-09-18T05:33:12.627Z,51.212158
2022-09-18T05:34:12.741Z,51.212158
2022-09-18T05:35:12.594Z,51.212112
2022-09-18T05:36:12.591Z,51.212151
2022-09-18T05:37:12.606Z,51.212223
2022-09-18T05:38:12.567Z,51.212269
2022-09-18T05:39:17.302Z,51.212223
2022-09-18T05:40:14.605Z,51.212185
2022-09-18T05:41:12.587Z,51.212135
2022-09-18T05:42:12.546Z,51.212135
2022-09-18T05:43:12.549Z,51.212173
2022-09-18T05:44:12.720Z,51.212181
2022-09-18T05:45:12.620Z,51.212189
2022-09-18T05:46:12.555Z,51.212162
2022-09-18T05:47:12.559Z,51.212147
2022-09-18T05:48:12.512Z,51.212101
2022-09-18T05:49:12.503Z,51.212109
2022-09-18T05:50:12.541Z,51.212135
2022-09-18T05:51:12.502Z,51.212135
2022-09-18T05:52:12.482Z,51.212166
2022-09-18T05:53:12.608Z,51.212196
2022-09-18T05:54:12.493Z,51.212212
2022-09-18T05:55:12.471Z,51.212181
2022-09-18T05:56:12.553Z,51.212212
2022-09-18T05:57:12.449Z,51.212219
2022-09-18T05:58:12.452Z,51.212166
2022-09-18T05:59:12.517Z,51.212223
2022-09-18T06:00:12.449Z,51.212032
2022-09-18T06:01:12.536Z,51.212185
2022-09-18T06:02:12.518Z,51.212227
2022-09-18T06:03:12.477Z,51.212078
2022-09-18T06:04:12.406Z,51.212116
2022-09-18T06:05:12.473Z,51.212154
2022-09-18T06:06:12.404Z,51.212170
2022-09-18T06:07:12.389Z,51.212204
2022-09-18T06:08:12.481Z,51.212135
2022-09-18T06:09:12.378Z,51.212196
2022-09-18T06:10:12.373Z,51.212170
2022-09-18T06:11:12.519Z,51.212151
2022-09-18T06:12:12.369Z,51.212212
2022-09-18T06:13:12.366Z,51.212090
2022-09-18T06:14:12.445Z,51.212017
2022-09-18T06:15:12.333Z,51.211941
2022-09-18T06:16:12.360Z,51.212132
2022-09-18T06:17:12.425Z,51.212029
2022-09-18T06:18:13.427Z,51.212105
2022-09-18T06:19:12.312Z,51.212048
2022-09-18T06:20:12.311Z,51.211842
2022-09-18T06:21:12.341Z,51.211918
2022-09-18T06:22:12.295Z,51.211826
2022-09-18T06:23:12.283Z,51.211830
2022-09-18T06:24:12.298Z,51.211723
2022-09-18T06:25:12.300Z,51.212055
2022-09-18T06:26:14.972Z,51.211929
2022-09-18T06:27:13.261Z,51.211834
2022-09-18T06:28:12.269Z,51.211956
2022-09-18T06:29:12.285Z,51.211887
2022-09-18T06:30:12.257Z,51.211826
2022-09-18T06:31:12.310Z,51.211952
2022-09-18T06:32:12.226Z,51.212082
2022-09-18T06:33:12.318Z,51.211987
2022-09-18T06:34:12.271Z,51.211918
2022-09-18T06:35:12.203Z,51.211777
2022-09-18T06:36:12.218Z,51.211830
2022-09-18T06:37:12.363Z,51.211895
2022-09-18T06:38:12.188Z,51.211849
2022-09-18T06:39:12.173Z,51.211922
2022-09-18T06:40:12.227Z,51.211929
2022-09-18T06:41:12.179Z,51.211914
2022-09-18T06:42:12.158Z,51.211933
2022-09-18T06:43:12.150Z,51.211922
2022-09-18T06:44:12.137Z,51.212086
2022-09-18T06:45:12.134Z,51.212059
2022-09-18T06:46:12.189Z,51.212063
2022-09-18T06:47:12.131Z,51.212048
2022-09-18T06:48:12.115Z,51.212059
2022-09-18T06:49:12.210Z,51.211994
2022-09-18T06:50:12.103Z,51.212109
2022-09-18T06:51:12.101Z,51.211926
2022-09-18T06:52:12.190Z,51.211899
2022-09-18T06:53:12.905Z,51.211773
2022-09-18T06:54:13.087Z,51.212040
2022-09-18T06:55:12.098Z,51.212029
2022-09-18T06:56:12.099Z,51.211960
2022-09-18T06:57:12.074Z,51.211975
2022-09-18T06:58:12.082Z,51.211964
2022-09-18T06:59:12.059Z,51.211990
2022-09-18T07:00:12.086Z,51.211941
2022-09-18T07:01:12.137Z,51.212013
2022-09-18T07:02:15.030Z,51.212029
2022-09-18T07:03:13.014Z,51.211987
2022-09-18T07:04:13.046Z,51.211884
2022-09-18T07:05:12.155Z,51.211975
2022-09-18T07:06:12.078Z,51.212093
2022-09-18T07:07:11.990Z,51.212093
2022-09-18T07:08:12.021Z,51.212109
2022-09-18T07:09:11.984Z,51.212009
2022-09-18T07:10:12.020Z,51.212093
2022-09-18T07:11:11.975Z,51.212128
2022-09-18T07:12:11.965Z,51.212116
2022-09-18T07:13:11.941Z,51.212116
2022-09-18T07:14:12.107Z,51.212116
2022-09-18T07:15:11.933Z,51.212154
2022-09-18T07:16:11.990Z,51.212067
2022-09-18T07:17:15.465Z,51.212090
2022-09-18T07:18:13.933Z,51.212139
2022-09-18T07:19:11.910Z,51.212166
2022-09-18T07:20:11.957Z,51.212212
2022-09-18T07:21:12.035Z,51.212128
2022-09-18T07:22:11.885Z,51.212132
2022-09-18T07:23:12.009Z,51.212177
2022-09-18T07:24:11.893Z,51.212101
2022-09-18T07:25:11.889Z,51.212120
2022-09-18T07:26:11.886Z,51.212051
2022-09-18T07:27:11.890Z,51.212120
2022-09-18T07:28:12.736Z,51.211994
2022-09-18T07:29:11.840Z,51.212029
2022-09-18T07:30:11.860Z,51.212044
2022-09-18T07:31:11.857Z,51.212109
2022-09-18T07:32:11.896Z,51.212139
2022-09-18T07:33:11.808Z,51.212116
2022-09-18T07:34:11.824Z,51.212086
2022-09-18T07:35:11.793Z,51.212074
2022-09-18T07:36:24.315Z,51.212132
2022-09-18T07:37:11.775Z,51.212254
2022-09-18T07:38:11.771Z,51.212181
2022-09-18T07:39:11.756Z,51.212105
2022-09-18T07:40:11.850Z,51.212124
2022-09-18T07:41:11.742Z,51.212132
2022-09-18T07:42:11.767Z,51.212151
2022-09-18T07:43:11.768Z,51.212112
2022-09-18T07:44:11.754Z,51.212185
2022-09-18T07:45:11.726Z,51.212120
2022-09-18T07:46:11.780Z,51.212212
2022-09-18T07:47:11.715Z,51.212055
2022-09-18T07:48:11.711Z,51.212002
2022-09-18T07:49:11.694Z,51.211960
2022-09-18T07:50:11.696Z,51.211899
2022-09-18T07:51:11.694Z,51.212021
2022-09-18T07:52:11.772Z,51.212029
2022-09-18T07:53:11.682Z,51.212181
2022-09-18T07:54:11.669Z,51.212219
2022-09-18T07:55:12.119Z,51.212223
2022-09-18T07:56:11.661Z,51.212132
2022-09-18T07:57:12.652Z,51.212162
2022-09-18T07:58:11.640Z,51.212078
2022-09-18T07:59:11.639Z,51.212074
2022-09-18T08:00:11.640Z,51.212090
2022-09-18T08:01:11.621Z,51.212181
2022-09-18T08:02:11.796Z,51.212200
2022-09-18T08:03:11.715Z,51.212173
2022-09-18T08:04:11.627Z,51.212196
2022-09-18T08:05:11.597Z,51.212212
2022-09-18T08:06:11.631Z,51.212128
2022-09-18T08:07:11.581Z,51.212154
2022-09-18T08:08:11.679Z,51.212196
2022-09-18T08:09:11.577Z,51.212120
2022-09-18T08:10:11.565Z,51.212067
2022-09-18T08:11:11.585Z,51.212200
2022-09-18T08:12:11.553Z,51.212196
2022-09-18T08:13:11.558Z,51.212139
2022-09-18T08:14:11.533Z,51.212280
2022-09-18T08:15:11.552Z,51.212402
2022-09-18T08:16:11.605Z,51.212299
2022-09-18T08:17:11.512Z,51.212334
2022-09-18T08:18:11.575Z,51.212162
2022-09-18T08:19:11.509Z,51.212257
2022-09-18T08:20:11.495Z,51.212250
2022-09-18T08:21:11.500Z,51.212257
2022-09-18T08:22:11.519Z,51.212460
2022-09-18T08:23:11.483Z,51.212318
2022-09-18T08:24:11.573Z,51.212204
2022-09-18T08:25:11.459Z,51.212204
2022-09-18T08:26:11.525Z,51.212265
2022-09-18T08:27:11.454Z,51.212151
2022-09-18T08:28:11.442Z,51.212162
2022-09-18T08:29:11.451Z,51.212147
2022-09-18T08:30:11.423Z,51.212246
2022-09-18T08:31:11.464Z,51.212265
2022-09-18T08:32:11.431Z,51.211990
2022-09-18T08:33:11.424Z,51.211872
2022-09-18T08:34:11.419Z,51.212120
2022-09-18T08:35:11.428Z,51.212162
2022-09-18T08:36:11.406Z,51.212269
2022-09-18T08:37:11.418Z,51.212265
2022-09-18T08:38:11.408Z,51.212147
2022-09-18T08:39:11.374Z,51.212196
2022-09-18T08:40:11.478Z,51.212296
2022-09-18T08:41:11.350Z,51.212254
2022-09-18T08:42:11.437Z,51.212265
2022-09-18T08:43:11.342Z,51.212067
2022-09-18T08:44:11.347Z,51.212116
2022-09-18T08:45:11.321Z,51.212029
2022-09-18T08:46:11.351Z,51.212135
2022-09-18T08:47:11.342Z,51.212158
2022-09-18T08:48:11.311Z,51.212200
2022-09-18T08:49:11.384Z,51.212177
2022-09-18T08:50:11.298Z,51.212090
2022-09-18T08:51:11.298Z,51.211807
2022-09-18T08:52:11.323Z,51.212036
2022-09-18T08:53:11.278Z,51.212070
2022-09-18T08:54:11.274Z,51.211987
2022-09-18T08:55:11.262Z,51.211872
2022-09-18T08:56:11.261Z,51.211933
2022-09-18T08:57:15.376Z,51.212063
2022-09-18T08:58:12.297Z,51.212051
2022-09-18T08:59:11.301Z,51.211994
2022-09-18T09:00:11.266Z,51.212151
2022-09-18T09:01:11.371Z,51.212177
2022-09-18T09:02:14.469Z,51.212147
2022-09-18T09:03:11.265Z,51.212143
2022-09-18T09:04:11.240Z,51.212170
2022-09-18T09:05:11.232Z,51.212112
2022-09-18T09:06:11.265Z,51.212154
2022-09-18T09:07:11.256Z,51.212124
2022-09-18T09:08:11.254Z,51.212112
2022-09-18T09:09:14.944Z,51.212143
2022-09-18T09:10:13.324Z,51.212116
2022-09-18T09:11:11.231Z,51.211975
2022-09-18T09:12:11.270Z,51.212055
2022-09-18T09:13:11.200Z,51.212078
2022-09-18T09:14:11.188Z,51.212086
2022-09-18T09:15:11.186Z,51.212090
2022-09-18T09:16:11.239Z,51.211967
2022-09-18T09:17:11.223Z,51.212090
2022-09-18T09:18:11.199Z,51.212048
2022-09-18T09:19:11.825Z,51.211983
2022-09-18T09:20:11.154Z,51.211918
2022-09-18T09:21:11.895Z,51.211941
2022-09-18T09:22:12.183Z,51.212017
2022-09-18T09:23:11.127Z,51.212067
2022-09-18T09:24:11.159Z,51.212166
2022-09-18T09:25:11.106Z,51.212173
2022-09-18T09:26:11.111Z,51.212124
2022-09-18T09:27:11.066Z,51.212181
2022-09-18T09:28:14.520Z,51.212124
2022-09-18T09:29:13.126Z,51.211990
2022-09-18T09:30:11.202Z,51.212097
2022-09-18T09:31:11.197Z,51.212120
2022-09-18T09:32:11.159Z,51.212158
2022-09-18T09:33:11.150Z,51.212219
2022-09-18T09:34:11.030Z,51.212208
2022-09-18T09:35:11.074Z,51.212112
2022-09-18T09:36:11.059Z,51.212135
2022-09-18T09:37:11.081Z,51.212139
2022-09-18T09:38:11.066Z,51.212074
2022-09-18T09:39:11.031Z,51.211960
2022-09-18T09:40:11.105Z,51.211796
2022-09-18T09:41:10.995Z,51.212048
2022-09-18T09:42:10.960Z,51.211952
2022-09-18T09:43:11.042Z,51.211845
2022-09-18T09:44:11.087Z,51.211868
2022-09-18T09:45:11.101Z,51.211967
2022-09-18T09:46:11.047Z,51.212059
2022-09-18T09:47:11.099Z,51.212257
2022-09-18T09:48:11.167Z,51.212120
2022-09-18T09:49:10.942Z,51.211937
2022-09-18T09:50:10.930Z,51.211903
2022-09-18T09:51:10.922Z,51.211929
2022-09-18T09:52:10.929Z,51.211926
2022-09-18T09:53:11.037Z,51.211994
2022-09-18T09:54:10.888Z,51.212044
2022-09-18T09:55:10.971Z,51.211948
2022-09-18T09:56:10.973Z,51.211987
2022-09-18T09:57:10.871Z,51.212017
2022-09-18T09:58:10.876Z,51.212017
2022-09-18T09:59:10.939Z,51.211956
2022-09-18T10:00:11.913Z,51.211941
2022-09-18T10:01:11.030Z,51.211956
2022-09-18T10:02:11.964Z,51.211971
2022-09-18T10:03:10.825Z,51.211941
2022-09-18T10:04:11.915Z,51.211971
2022-09-18T10:05:10.909Z,51.212006
2022-09-18T10:06:11.006Z,51.211971
2022-09-18T10:07:11.716Z,51.211937
2022-09-18T10:08:10.977Z,51.211971
2022-09-18T10:09:11.019Z,51.212090
2022-09-18T10:10:10.984Z,51.212082
2022-09-18T10:11:10.833Z,51.211979
2022-09-18T10:12:11.887Z,51.211895
2022-09-18T10:13:10.968Z,51.211964
2022-09-18T10:14:11.298Z,51.211956
2022-09-18T10:15:10.801Z,51.211716
2022-09-18T10:16:10.855Z,51.211838
2022-09-18T10:17:11.013Z,51.212040
2022-09-18T10:18:15.661Z,51.211842
2022-09-18T10:19:12.816Z,51.212032
2022-09-18T10:20:10.783Z,51.212105
2022-09-18T10:21:10.842Z,51.212261
2022-09-18T10:22:10.786Z,51.212132
2022-09-18T10:23:10.749Z,51.212105
2022-09-18T10:24:10.813Z,51.211861
2022-09-18T10:25:10.852Z,51.212036
2022-09-18T10:26:11.349Z,51.212059
2022-09-18T10:27:10.694Z,51.212029
2022-09-18T10:28:10.727Z,51.212154
2022-09-18T10:29:10.667Z,51.212193
2022-09-18T10:30:10.681Z,51.212116
2022-09-18T10:31:10.858Z,51.212070
2022-09-18T10:32:10.815Z,51.212227
2022-09-18T10:33:10.648Z,51.212238
2022-09-18T10:34:10.623Z,51.211868
2022-09-18T10:35:11.357Z,51.211914
2022-09-18T10:36:10.622Z,51.211983
2022-09-18T10:37:11.455Z,51.211952
2022-09-18T10:38:10.660Z,51.212059
2022-09-18T10:39:10.613Z,51.212021
2022-09-18T10:40:10.732Z,51.212162
2022-09-18T10:41:10.600Z,51.211967
2022-09-18T10:42:10.608Z,51.211910
2022-09-18T10:43:10.668Z,51.212189
2022-09-18T10:44:11.219Z,51.212322
2022-09-18T10:45:11.496Z,51.212246
2022-09-18T10:46:10.814Z,51.212208
2022-09-18T10:47:10.561Z,51.212307
2022-09-18T10:48:10.611Z,51.212265
2022-09-18T10:49:10.607Z,51.212181
2022-09-18T10:50:10.648Z,51.212212
2022-09-18T10:51:10.742Z,51.212349
2022-09-18T10:52:10.586Z,51.212200
2022-09-18T10:53:10.622Z,51.212173
2022-09-18T10:54:10.598Z,51.212147
2022-09-18T10:55:10.554Z,51.212208
2022-09-18T10:56:10.570Z,51.212257
2022-09-18T10:57:10.544Z,51.212208
2022-09-18T10:58:10.543Z,51.212238
2022-09-18T10:59:10.488Z,51.212280
2022-09-18T11:00:10.536Z,51.212189
2022-09-18T11:01:11.242Z,51.212070
2022-09-18T11:02:10.525Z,51.212173
2022-09-18T11:03:10.427Z,51.212212
2022-09-18T11:04:10.540Z,51.212261
2022-09-18T11:05:10.475Z,51.212296
2022-09-18T11:06:10.439Z,51.212269
2022-09-18T11:07:10.429Z,51.212318
2022-09-18T11:08:10.444Z,51.212349
2022-09-18T11:09:10.409Z,51.212372
2022-09-18T11:10:10.439Z,51.212231
2022-09-18T11:11:12.001Z,51.212227
2022-09-18T11:12:11.428Z,51.212223
2022-09-18T11:13:10.419Z,51.212147
2022-09-18T11:14:10.422Z,51.212223
2022-09-18T11:15:10.442Z,51.212288
2022-09-18T11:16:10.502Z,51.212276
2022-09-18T11:17:11.346Z,51.212193
2022-09-18T11:18:10.431Z,51.212185
2022-09-18T11:19:10.331Z,51.212196
2022-09-18T11:20:10.457Z,51.212185
2022-09-18T11:21:10.444Z,51.212112
2022-09-18T11:22:10.375Z,51.212147
2022-09-18T11:23:10.283Z,51.212208
2022-09-18T11:24:10.286Z,51.212200
2022-09-18T11:25:10.272Z,51.212193
2022-09-18T11:26:10.260Z,51.212231
2022-09-18T11:27:11.265Z,51.212193